Time;durP1;ratioP1;P1;durP2;ratioP2;P2;SDS_P1;SDS_P2;PMS_P1;PMS_P2;Temp;Humidity;BMP_temperature;BMP_pressure;BME280_temperature;BME280_humidity;BME280_pressure;Samples;Min_cycle;Max_cycle;Signal;HPM_P1;HPM_P2
2024/02/06 00:01:47;;;;;;;9.60;3.50;;;;;;;8.85;73.85;98229.88;108385;1253;109516;-80
2024/02/06 00:04:16;;;;;;;8.40;3.30;;;;;;;8.86;73.57;98229.10;106151;1255;97800;-78
2024/02/06 00:06:44;;;;;;;6.20;3.20;;;;;;;8.87;73.85;98232.38;105585;1255;107602;-78
2024/02/06 00:09:12;;;;;;;8.10;3.90;;;;;;;8.87;73.37;98229.42;105919;1256;96638;-80
2024/02/06 00:11:40;;;;;;;11.00;4.00;;;;;;;8.89;73.43;98233.98;108456;1252;94752;-80
2024/02/06 00:14:10;;;;;;;9.70;3.20;;;;;;;8.91;73.45;98238.27;105621;1256;109659;-80
2024/02/06 00:16:38;;;;;;;7.90;3.30;;;;;;;8.91;73.28;98231.91;107564;1252;96600;-79
2024/02/06 00:19:06;;;;;;;7.70;3.60;;;;;;;8.92;73.26;98232.67;106670;1253;107703;-81
2024/02/06 00:21:34;;;;;;;10.00;3.00;;;;;;;8.96;73.08;98238.11;105679;1255;96598;-79
2024/02/06 00:24:02;;;;;;;7.80;3.50;;;;;;;8.97;72.69;98239.06;105902;1255;96611;-79
2024/02/06 00:26:30;;;;;;;8.40;3.50;;;;;;;8.98;72.43;98241.76;106161;1255;109899;-82
2024/02/06 00:28:58;;;;;;;10.00;3.40;;;;;;;8.98;72.09;98239.86;105816;1253;96691;-78
2024/02/06 00:34:12;;;;;;;6.30;3.40;;;;;;;8.98;72.02;98243.40;108227;1254;96499;-80
2024/02/06 00:36:40;;;;;;;7.30;2.80;;;;;;;8.97;72.01;98241.72;105846;1252;96556;-79
2024/02/06 00:39:08;;;;;;;9.30;2.90;;;;;;;8.97;71.74;98242.78;106060;1255;109921;-80
2024/02/06 00:41:37;;;;;;;6.10;2.90;;;;;;;8.98;71.37;98247.64;105212;1257;96648;-79
2024/02/06 00:44:05;;;;;;;7.00;3.30;;;;;;;9.01;71.55;98246.69;105848;1255;107724;-78
2024/02/06 00:46:33;;;;;;;10.30;3.20;;;;;;;9.02;71.44;98240.44;106997;1252;96700;-80
2024/02/06 00:49:01;;;;;;;4.50;2.90;;;;;;;9.00;71.27;98242.55;105593;1253;96648;-80
2024/02/06 00:51:29;;;;;;;7.60;3.10;;;;;;;8.98;71.13;98243.88;106013;1254;109827;-78
2024/02/06 00:53:57;;;;;;;7.70;3.20;;;;;;;8.99;70.98;98251.84;105939;1253;96597;-78
2024/02/06 00:56:25;;;;;;;8.20;3.30;;;;;;;8.98;70.61;98252.00;105366;1252;106799;-80
2024/02/06 00:58:53;;;;;;;9.60;3.20;;;;;;;8.99;70.73;98243.98;105702;1256;96604;-78
2024/02/06 01:01:21;;;;;;;7.40;3.30;;;;;;;8.97;70.48;98242.04;106281;1253;96595;-79
2024/02/06 01:03:49;;;;;;;5.40;2.70;;;;;;;8.98;70.76;98243.05;105894;1252;108144;-78
2024/02/06 01:06:37;;;;;;;8.90;3.00;;;;;;;8.97;70.41;98244.38;106333;1255;96528;-78
2024/02/06 01:09:05;;;;;;;5.60;3.20;;;;;;;8.96;70.43;98240.17;105582;1268;105503;-80
2024/02/06 01:11:33;;;;;;;6.60;3.10;;;;;;;8.94;70.37;98238.40;108394;1253;96449;-78
2024/02/06 01:14:00;;;;;;;8.90;3.30;;;;;;;8.92;70.22;98242.06;105566;1253;96605;-80
2024/02/06 01:16:28;;;;;;;12.10;2.70;;;;;;;8.93;70.37;98246.91;105726;1255;109986;-78
2024/02/06 01:18:56;;;;;;;8.40;3.20;;;;;;;8.92;70.24;98243.63;105256;1253;96597;-79
2024/02/06 01:21:24;;;;;;;5.50;2.80;;;;;;;8.92;70.00;98242.56;105196;1256;108010;-80
2024/02/06 01:26:56;;;;;;;8.90;2.90;;;;;;;8.93;70.13;98240.04;105145;1271;96619;-79
2024/02/06 01:29:24;;;;;;;8.70;2.90;;;;;;;8.93;69.99;98240.95;105634;1254;108540;-80
2024/02/06 01:31:52;;;;;;;8.40;3.20;;;;;;;8.92;69.92;98248.42;105528;1255;96565;-80
2024/02/06 01:34:20;;;;;;;8.00;3.00;;;;;;;8.92;69.76;98242.48;106665;1255;107128;-78
2024/02/06 01:36:48;;;;;;;7.40;3.50;;;;;;;8.91;69.72;98247.97;105632;1255;96589;-78
2024/02/06 01:39:17;;;;;;;7.30;2.90;;;;;;;8.91;69.74;98243.00;105719;1255;96572;-78
2024/02/06 01:41:45;;;;;;;8.90;3.30;;;;;;;8.90;69.18;98246.27;106278;1255;109557;-79
2024/02/06 01:44:12;;;;;;;5.90;3.40;;;;;;;8.91;69.24;98254.67;106168;1255;96674;-77
2024/02/06 01:46:40;;;;;;;12.70;3.70;;;;;;;8.93;69.28;98251.51;105417;1255;107302;-80
2024/02/06 01:49:09;;;;;;;9.60;3.00;;;;;;;8.94;69.02;98252.58;105534;1258;96530;-80
2024/02/06 01:51:39;;;;;;;6.80;2.80;;;;;;;8.92;69.03;98248.09;105670;1255;96601;-78
2024/02/06 01:54:08;;;;;;;7.00;3.00;;;;;;;8.91;69.02;98249.40;105367;1255;109320;-79
2024/02/06 01:56:36;;;;;;;6.40;2.90;;;;;;;8.91;68.83;98250.67;105819;1255;96677;-79
2024/02/06 01:59:05;;;;;;;8.90;3.50;;;;;;;8.92;69.01;98253.79;106243;1253;107660;-79
2024/02/06 02:01:34;;;;;;;10.50;3.30;;;;;;;8.90;68.95;98252.82;106192;1255;96728;-79
2024/02/06 02:04:03;;;;;;;5.70;3.00;;;;;;;8.89;68.87;98250.48;106064;1255;96648;-79
2024/02/06 02:06:31;;;;;;;6.30;2.90;;;;;;;8.88;68.84;98249.14;105312;1257;109608;-79
2024/02/06 02:08:59;;;;;;;7.10;3.00;;;;;;;8.88;68.87;98246.48;106647;1255;96585;-80
2024/02/06 02:11:27;;;;;;;4.70;2.60;;;;;;;8.87;68.86;98254.50;105580;1253;107834;-78
2024/02/06 02:13:55;;;;;;;7.20;3.30;;;;;;;8.86;68.87;98246.43;107778;1254;96502;-79
2024/02/06 02:16:23;;;;;;;5.40;2.70;;;;;;;8.86;68.84;98247.00;105228;1253;97490;-79
2024/02/06 02:18:52;;;;;;;5.20;2.80;;;;;;;8.86;68.86;98247.16;106780;1252;109482;-78
2024/02/06 02:21:21;;;;;;;9.00;3.00;;;;;;;8.86;68.83;98242.95;105458;1255;96603;-77
2024/02/06 02:23:49;;;;;;;6.10;2.60;;;;;;;8.86;68.85;98242.73;107145;1254;107647;-77
2024/02/06 02:26:20;;;;;;;6.10;3.30;;;;;;;8.87;68.85;98239.70;105313;1253;97927;-80
2024/02/06 02:28:49;;;;;;;6.10;3.00;;;;;;;8.87;68.83;98239.45;105638;1255;96508;-80
2024/02/06 02:31:20;;;;;;;7.70;2.90;;;;;;;8.88;68.94;98239.44;106770;1255;109345;-79
2024/02/06 02:33:48;;;;;;;10.60;3.10;;;;;;;8.88;68.96;98229.70;106659;1255;96508;-79
2024/02/06 02:36:16;;;;;;;6.80;3.40;;;;;;;8.88;68.77;98235.73;107372;1253;107115;-80
2024/02/06 02:38:44;;;;;;;9.30;3.20;;;;;;;8.87;68.75;98234.04;105452;1253;96719;-78
2024/02/06 02:41:12;;;;;;;5.80;3.30;;;;;;;8.87;68.59;98235.75;105733;1254;97417;-79
2024/02/06 02:43:40;;;;;;;7.20;3.10;;;;;;;8.87;68.73;98236.46;106579;1253;109510;-80
2024/02/06 02:46:08;;;;;;;7.70;3.00;;;;;;;8.87;68.53;98233.48;105701;1256;96666;-80
2024/02/06 02:48:36;;;;;;;6.40;2.70;;;;;;;8.87;68.57;98236.30;105783;1255;106771;-80
2024/02/06 02:51:04;;;;;;;8.00;2.60;;;;;;;8.85;68.66;98239.43;106896;1254;96607;-78
2024/02/06 02:53:32;;;;;;;7.30;2.90;;;;;;;8.84;68.58;98238.13;105849;1257;97927;-78
2024/02/06 02:56:00;;;;;;;5.70;3.30;;;;;;;8.81;68.54;98236.39;105212;1269;110341;-79
2024/02/06 02:58:28;;;;;;;8.00;2.90;;;;;;;8.82;68.56;98235.28;106200;1258;96601;-78
2024/02/06 03:00:56;;;;;;;11.20;4.10;;;;;;;8.82;68.76;98237.06;105188;1255;107628;-78
2024/02/06 03:03:24;;;;;;;5.40;2.80;;;;;;;8.82;68.51;98235.59;106660;1252;97500;-79
2024/02/06 03:05:52;;;;;;;5.30;2.70;;;;;;;8.83;68.38;98240.50;107577;1256;96579;-80
2024/02/06 03:08:19;;;;;;;5.30;2.80;;;;;;;8.85;68.46;98238.76;105447;1259;109784;-80
2024/02/06 03:10:48;;;;;;;4.60;3.00;;;;;;;8.86;68.34;98247.50;107079;1253;96590;-80
2024/02/06 03:13:16;;;;;;;6.80;3.20;;;;;;;8.85;68.38;98245.77;105492;1258;108111;-79
2024/02/06 03:15:44;;;;;;;6.50;3.10;;;;;;;8.85;68.23;98250.45;105488;1253;96566;-79
2024/02/06 03:18:12;;;;;;;6.50;2.70;;;;;;;8.84;68.41;98249.63;105763;1253;96692;-78
2024/02/06 03:20:40;;;;;;;6.80;2.50;;;;;;;8.84;68.28;98252.23;106111;1255;109905;-80
2024/02/06 03:23:08;;;;;;;4.70;2.50;;;;;;;8.84;68.26;98253.02;105922;1255;97931;-80
2024/02/06 03:25:35;;;;;;;6.10;2.50;;;;;;;8.84;68.12;98253.67;105780;1255;106318;-80
2024/02/06 03:28:04;;;;;;;7.50;3.20;;;;;;;8.85;67.95;98258.38;106275;1253;96823;-81
2024/02/06 03:30:32;;;;;;;7.20;2.90;;;;;;;8.86;67.80;98254.98;105721;1255;96604;-80
2024/02/06 03:33:00;;;;;;;6.00;2.40;;;;;;;8.87;67.82;98256.81;105789;1255;109440;-79
2024/02/06 03:35:28;;;;;;;7.40;2.80;;;;;;;8.86;67.54;98251.73;106663;1254;96936;-80
2024/02/06 03:37:55;;;;;;;5.90;2.50;;;;;;;8.87;67.66;98257.53;106048;1255;108640;-79
2024/02/06 03:40:23;;;;;;;6.60;2.90;;;;;;;8.85;67.39;98261.50;105220;1256;96579;-80
2024/02/06 03:42:51;;;;;;;10.20;2.40;;;;;;;8.86;67.38;98263.40;105427;1255;96615;-79
2024/02/06 03:45:19;;;;;;;5.00;2.40;;;;;;;8.86;67.33;98261.27;106553;1253;109913;-77
2024/02/06 03:47:47;;;;;;;5.60;2.80;;;;;;;8.86;67.15;98266.41;106381;1253;98682;-79
2024/02/06 03:50:15;;;;;;;6.20;3.00;;;;;;;8.85;67.22;98263.83;105653;1256;107692;-80
2024/02/06 03:52:44;;;;;;;5.50;2.60;;;;;;;8.85;67.20;98263.89;105170;1269;97615;-78
2024/02/06 03:55:12;;;;;;;5.30;2.40;;;;;;;8.84;67.19;98261.95;105397;1253;96656;-78
2024/02/06 03:57:39;;;;;;;4.70;2.50;;;;;;;8.86;67.16;98265.40;105527;1255;110235;-80
2024/02/06 04:00:08;;;;;;;7.60;3.20;;;;;;;8.84;67.04;98268.86;106027;1255;96598;-79
2024/02/06 04:02:36;;;;;;;8.20;3.00;;;;;;;8.85;67.05;98268.09;107523;1253;107593;-78
2024/02/06 04:05:05;;;;;;;3.90;2.20;;;;;;;8.84;66.97;98266.08;105672;1256;98081;-79
2024/02/06 04:07:33;;;;;;;7.80;2.70;;;;;;;8.84;66.85;98268.52;105404;1256;97361;-80
2024/02/06 04:10:01;;;;;;;7.10;2.50;;;;;;;8.85;66.57;98268.08;105922;1256;110462;-80
2024/02/06 04:12:29;;;;;;;8.90;2.70;;;;;;;8.85;66.67;98266.56;106807;1255;96589;-78
2024/02/06 04:14:58;;;;;;;5.40;2.40;;;;;;;8.83;66.77;98262.60;105529;1256;107551;-80
2024/02/06 04:17:26;;;;;;;9.50;2.80;;;;;;;8.81;66.69;98259.53;106868;1255;96595;-79
2024/02/06 04:19:54;;;;;;;8.20;3.40;;;;;;;8.80;66.55;98257.34;105602;1253;96603;-79
2024/02/06 04:22:22;;;;;;;4.70;2.40;;;;;;;8.78;66.55;98258.16;105729;1255;109870;-78
2024/02/06 04:24:50;;;;;;;5.70;2.30;;;;;;;8.78;66.38;98253.77;105761;1253;96607;-81
2024/02/06 04:27:18;;;;;;;6.60;2.30;;;;;;;8.78;66.29;98256.93;106032;1253;108353;-79
2024/02/06 04:29:46;;;;;;;9.20;2.90;;;;;;;8.78;66.24;98263.09;105762;1256;96575;-80
2024/02/06 04:32:13;;;;;;;6.60;3.00;;;;;;;8.78;66.36;98255.34;105473;1256;96725;-76
2024/02/06 04:34:41;;;;;;;4.70;2.50;;;;;;;8.77;66.22;98253.30;105462;1255;109239;-74
2024/02/06 04:37:09;;;;;;;10.80;3.20;;;;;;;8.76;66.27;98254.11;105416;1257;96497;-76
2024/02/06 04:39:37;;;;;;;6.10;2.70;;;;;;;8.75;66.25;98253.67;105827;1255;107118;-76
2024/02/06 04:42:05;;;;;;;10.30;3.00;;;;;;;8.73;66.05;98258.05;106136;1254;96597;-79
2024/02/06 04:44:33;;;;;;;10.50;2.80;;;;;;;8.71;66.16;98258.02;105908;1253;96699;-79
2024/02/06 04:47:01;;;;;;;4.20;2.40;;;;;;;8.71;66.13;98252.04;105777;1254;109081;-78
2024/02/06 04:49:29;;;;;;;9.30;3.10;;;;;;;8.71;66.07;98253.30;108325;1253;95242;-80
2024/02/06 04:51:57;;;;;;;9.00;3.50;;;;;;;8.71;65.81;98258.80;106317;1256;107684;-79
2024/02/06 04:54:25;;;;;;;8.30;3.00;;;;;;;8.71;65.73;98258.72;108354;1253;96639;-79
2024/02/06 04:56:53;;;;;;;14.50;3.80;;;;;;;8.71;65.83;98260.20;105820;1256;96457;-80
2024/02/06 04:59:21;;;;;;;15.00;6.00;;;;;;;8.70;65.87;98257.40;106715;1255;109933;-77
2024/02/06 05:01:49;;;;;;;11.60;4.90;;;;;;;8.69;65.91;98254.61;105500;1256;96593;-79
2024/02/06 05:04:17;;;;;;;6.50;3.10;;;;;;;8.69;65.78;98253.64;106457;1255;107712;-80
2024/02/06 05:06:47;;;;;;;13.10;5.60;;;;;;;8.68;65.87;98255.49;105300;1255;96598;-81
2024/02/06 05:09:16;;;;;;;13.40;7.10;;;;;;;8.65;65.75;98249.65;108521;1253;95010;-79
2024/02/06 05:11:43;;;;;;;8.10;4.10;;;;;;;8.64;65.64;98252.59;105954;1253;110270;-77
2024/02/06 05:14:11;;;;;;;7.20;3.00;;;;;;;8.63;65.77;98253.48;106934;1255;96642;-75
2024/02/06 05:16:40;;;;;;;7.30;2.70;;;;;;;8.63;65.60;98257.07;105474;1251;107657;-81
2024/02/06 05:19:13;;;;;;;5.60;2.90;;;;;;;8.62;65.65;98252.03;108674;1252;94319;-78
2024/02/06 05:21:41;;;;;;;5.70;2.70;;;;;;;8.59;65.66;98251.02;108814;1253;94527;-79
2024/02/06 05:24:09;;;;;;;5.00;2.80;;;;;;;8.58;65.61;98251.23;108791;1252;109904;-79
2024/02/06 05:26:37;;;;;;;6.00;2.40;;;;;;;8.59;65.66;98251.50;108784;1252;95488;-80
2024/02/06 05:29:07;;;;;;;5.50;2.70;;;;;;;8.58;65.54;98248.08;108777;1253;107607;-79
2024/02/06 05:31:35;;;;;;;5.70;3.00;;;;;;;8.56;65.40;98248.92;107478;1255;96667;-79
2024/02/06 05:34:03;;;;;;;4.20;2.60;;;;;;;8.55;65.64;98246.20;105653;1255;96612;-76
2024/02/06 05:36:31;;;;;;;7.40;3.00;;;;;;;8.55;65.56;98247.60;108712;1255;108796;-79
2024/02/06 05:38:59;;;;;;;7.50;3.60;;;;;;;8.54;65.52;98249.30;108570;1255;95455;-79
2024/02/06 05:41:27;;;;;;;7.50;2.90;;;;;;;8.51;65.60;98246.17;108560;1253;107551;-79
2024/02/06 05:43:55;;;;;;;10.50;3.70;;;;;;;8.49;65.60;98247.70;108027;1255;97192;-78
2024/02/06 05:46:24;;;;;;;7.00;3.70;;;;;;;8.46;65.49;98244.70;105472;1255;97647;-78
2024/02/06 05:48:52;;;;;;;9.80;3.30;;;;;;;8.47;65.55;98243.02;105859;1256;109992;-79
2024/02/06 05:51:20;;;;;;;5.20;2.70;;;;;;;8.47;65.48;98244.81;107578;1255;96603;-81
2024/02/06 05:53:48;;;;;;;11.80;3.40;;;;;;;8.46;65.62;98244.88;105259;1254;107647;-81
2024/02/06 05:56:17;;;;;;;9.70;3.00;;;;;;;8.45;65.56;98245.84;105654;1256;97074;-81
2024/02/06 05:58:45;;;;;;;8.80;3.30;;;;;;;8.44;65.49;98236.75;108003;1252;94824;-81
2024/02/06 06:01:13;;;;;;;9.50;2.80;;;;;;;8.42;65.59;98239.16;105777;1257;108914;-80
2024/02/06 06:03:41;;;;;;;9.10;4.00;;;;;;;8.42;65.36;98241.16;105265;1254;96587;-79
2024/02/06 06:06:09;;;;;;;8.40;3.60;;;;;;;8.39;65.49;98238.18;108734;1253;107669;-79
2024/02/06 06:08:38;;;;;;;9.00;3.40;;;;;;;8.37;65.43;98234.30;107053;1255;96528;-79
2024/02/06 06:11:06;;;;;;;8.40;3.50;;;;;;;8.34;65.63;98230.97;107730;1255;96504;-82
2024/02/06 06:13:34;;;;;;;10.60;3.90;;;;;;;8.34;65.40;98231.84;106023;1255;109803;-81
2024/02/06 06:16:02;;;;;;;6.60;3.30;;;;;;;8.33;65.53;98230.52;105385;1256;96594;-79
2024/02/06 06:18:30;;;;;;;8.60;3.40;;;;;;;8.33;65.62;98233.70;106174;1255;107071;-78
2024/02/06 06:20:58;;;;;;;6.20;3.40;;;;;;;8.33;65.44;98229.60;106118;1255;96610;-80
2024/02/06 06:23:26;;;;;;;8.10;4.10;;;;;;;8.33;65.50;98230.31;105798;1258;96601;-80
2024/02/06 06:25:57;;;;;;;7.50;3.30;;;;;;;8.31;65.54;98230.46;105208;1256;110346;-80
2024/02/06 06:28:25;;;;;;;8.90;3.70;;;;;;;8.30;65.48;98232.55;106233;1253;96521;-80
2024/02/06 06:30:53;;;;;;;10.30;3.20;;;;;;;8.28;65.56;98236.40;105235;1257;107433;-81
2024/02/06 06:33:22;;;;;;;14.40;4.20;;;;;;;8.26;65.49;98230.56;106359;1258;97601;-80
2024/02/06 06:35:50;;;;;;;8.30;4.30;;;;;;;8.24;65.55;98228.95;107756;1255;96174;-79
2024/02/06 06:38:18;;;;;;;10.70;4.20;;;;;;;8.23;65.46;98235.20;106138;1253;108201;-79
2024/02/06 06:40:46;;;;;;;9.10;4.00;;;;;;;8.23;65.69;98241.20;105540;1255;96514;-81
2024/02/06 06:43:14;;;;;;;7.70;3.50;;;;;;;8.22;65.58;98234.55;105715;1266;107476;-81
2024/02/06 06:45:42;;;;;;;6.80;3.60;;;;;;;8.22;65.48;98231.92;105563;1257;97071;-79
2024/02/06 06:48:10;;;;;;;7.20;3.70;;;;;;;8.22;65.66;98237.88;105913;1254;96686;-79
2024/02/06 06:50:38;;;;;;;10.80;3.80;;;;;;;8.22;65.81;98241.95;105643;1254;109224;-80
2024/02/06 06:53:07;;;;;;;12.10;4.40;;;;;;;8.21;65.63;98242.35;105469;1266;96575;-81
2024/02/06 06:55:35;;;;;;;7.30;3.40;;;;;;;8.22;65.65;98244.23;106614;1257;107626;-78
2024/02/06 06:58:03;;;;;;;9.60;4.80;;;;;;;8.23;65.64;98245.45;105394;1257;96545;-80
2024/02/06 07:00:31;;;;;;;10.70;3.80;;;;;;;8.23;65.63;98250.40;105941;1256;96629;-81
2024/02/06 07:03:03;;;;;;;11.70;4.20;;;;;;;8.22;65.56;98250.48;105754;1256;111319;-80
2024/02/06 07:05:33;;;;;;;13.00;6.10;;;;;;;8.22;65.60;98248.86;106148;1255;96592;-81
2024/02/06 07:08:01;;;;;;;8.00;3.60;;;;;;;8.22;65.65;98254.35;105214;1258;107488;-80
2024/02/06 07:10:30;;;;;;;6.40;3.40;;;;;;;8.22;65.63;98253.11;105305;1256;96691;-82
2024/02/06 07:12:58;;;;;;;8.10;3.40;;;;;;;8.22;65.53;98260.32;105304;1259;96569;-80
2024/02/06 07:15:26;;;;;;;7.20;3.50;;;;;;;8.20;65.55;98262.19;107324;1255;111331;-81
2024/02/06 07:17:54;;;;;;;8.90;2.90;;;;;;;8.22;65.66;98254.15;106274;1255;96508;-80
2024/02/06 07:20:23;;;;;;;13.10;3.60;;;;;;;8.24;65.65;98252.97;105353;1257;107186;-81
2024/02/06 07:22:52;;;;;;;6.70;3.30;;;;;;;8.25;65.55;98255.90;105368;1256;97907;-80
2024/02/06 07:25:22;;;;;;;8.50;4.40;;;;;;;8.26;65.51;98253.99;105761;1255;96621;-78
2024/02/06 07:27:53;;;;;;;9.30;3.70;;;;;;;8.28;65.44;98252.30;105208;1258;109549;-84
2024/02/06 07:30:28;;;;;;;9.80;4.30;;;;;;;8.27;65.56;98248.85;105476;1267;97054;-81
2024/02/06 07:33:07;;;;;;;13.70;3.60;;;;;;;8.27;65.58;98257.46;105443;1258;107570;-80
2024/02/06 07:35:36;;;;;;;6.30;3.40;;;;;;;8.27;65.38;98263.11;105623;1255;96600;-80
2024/02/06 07:38:04;;;;;;;10.10;4.30;;;;;;;8.28;65.36;98263.76;106045;1257;97526;-81
2024/02/06 07:40:36;;;;;;;10.10;4.80;;;;;;;8.29;65.23;98258.41;105771;1256;109426;-82
2024/02/06 07:43:04;;;;;;;12.50;4.90;;;;;;;8.30;65.39;98259.35;107201;1256;96597;-81
2024/02/06 07:45:33;;;;;;;10.60;3.70;;;;;;;8.30;65.40;98261.27;106047;1255;107261;-82
2024/02/06 07:48:01;;;;;;;10.50;4.40;;;;;;;8.31;65.44;98258.71;105984;1255;97917;-78
2024/02/06 07:50:29;;;;;;;10.90;3.80;;;;;;;8.33;65.22;98255.96;108151;1257;94543;-80
2024/02/06 07:52:57;;;;;;;8.10;3.50;;;;;;;8.34;65.35;98257.85;107526;1256;110008;-80
2024/02/06 07:55:25;;;;;;;15.30;4.10;;;;;;;8.35;65.26;98264.98;106744;1256;96599;-78
2024/02/06 07:57:52;;;;;;;10.30;4.30;;;;;;;8.36;65.29;98269.52;105678;1256;107758;-77
2024/02/06 08:00:21;;;;;;;8.50;3.50;;;;;;;8.36;65.22;98268.41;106033;1263;96665;-77
2024/02/06 08:02:48;;;;;;;11.30;4.20;;;;;;;8.35;65.21;98270.61;106947;1254;96590;-79
2024/02/06 08:05:16;;;;;;;14.50;3.80;;;;;;;8.34;65.16;98268.94;107208;1255;109910;-77
2024/02/06 08:07:44;;;;;;;11.40;4.70;;;;;;;8.34;65.01;98272.64;108508;1252;96835;-79
2024/02/06 08:10:14;;;;;;;10.60;3.50;;;;;;;8.34;64.94;98272.86;108524;1254;107151;-78
2024/02/06 08:12:42;;;;;;;11.00;3.60;;;;;;;8.35;65.05;98271.15;106292;1256;96670;-78
2024/02/06 08:15:10;;;;;;;10.00;4.20;;;;;;;8.35;64.90;98271.50;105764;1256;97952;-79
2024/02/06 08:17:46;;;;;;;10.20;4.20;;;;;;;8.35;64.90;98273.95;105999;1257;108944;-80
2024/02/06 08:20:16;;;;;;;11.50;4.20;;;;;;;8.37;64.80;98269.45;105957;1256;96763;-78
2024/02/06 08:22:47;;;;;;;7.20;3.50;;;;;;;8.36;65.01;98273.52;106599;1253;106425;-77
2024/02/06 08:25:18;;;;;;;8.80;4.00;;;;;;;8.36;64.89;98270.89;107618;1252;96503;-78
2024/02/06 08:27:46;;;;;;;7.80;3.90;;;;;;;8.36;64.82;98272.32;106842;1256;96551;-78
2024/02/06 08:30:14;;;;;;;11.00;3.80;;;;;;;8.37;64.86;98271.73;105401;1264;108519;-79
2024/02/06 08:32:43;;;;;;;10.50;4.20;;;;;;;8.37;64.70;98282.34;105837;1257;96660;-79
2024/02/06 08:35:12;;;;;;;10.60;4.40;;;;;;;8.37;64.81;98284.09;105957;1254;106696;-78
2024/02/06 08:37:40;;;;;;;12.40;4.10;;;;;;;8.35;64.57;98292.85;105908;1257;96595;-79
2024/02/06 08:40:10;;;;;;;9.20;4.20;;;;;;;8.31;64.49;98285.79;105958;1255;96588;-78
2024/02/06 08:42:38;;;;;;;9.80;4.50;;;;;;;8.30;64.60;98288.46;105502;1266;109572;-79
2024/02/06 08:45:08;;;;;;;7.50;3.80;;;;;;;8.30;64.49;98292.41;105366;1260;96582;-79
2024/02/06 08:47:36;;;;;;;11.10;4.40;;;;;;;8.27;64.49;98289.23;105491;1266;107660;-80
2024/02/06 08:50:06;;;;;;;10.10;3.70;;;;;;;8.27;64.65;98286.45;107032;1256;97303;-79
2024/02/06 08:52:37;;;;;;;15.50;5.90;;;;;;;8.24;64.48;98290.01;105785;1257;96632;-79
2024/02/06 08:55:06;;;;;;;12.80;4.10;;;;;;;8.24;64.49;98291.98;106856;1254;109161;-78
2024/02/06 08:57:35;;;;;;;11.80;4.50;;;;;;;8.25;64.41;98296.00;105868;1254;96591;-77
2024/02/06 09:00:04;;;;;;;15.80;6.60;;;;;;;8.26;64.40;98301.38;105373;1266;107441;-77
2024/02/06 09:02:32;;;;;;;13.90;5.20;;;;;;;8.26;64.58;98297.11;105765;1254;97596;-78
2024/02/06 09:05:00;;;;;;;11.30;4.60;;;;;;;8.27;64.30;98292.10;105578;1254;96578;-77
2024/02/06 09:07:28;;;;;;;12.90;3.50;;;;;;;8.28;64.32;98297.67;106923;1253;109793;-78
2024/02/06 09:09:59;;;;;;;12.50;4.00;;;;;;;8.28;64.14;98296.42;108435;1252;95518;-76
2024/02/06 09:12:28;;;;;;;9.20;4.90;;;;;;;8.30;64.04;98295.77;105516;1257;108066;-78
2024/02/06 09:15:00;;;;;;;14.60;5.20;;;;;;;8.34;64.05;98286.98;107235;1256;96585;-79
2024/02/06 09:17:31;;;;;;;13.30;4.40;;;;;;;8.39;63.92;98290.11;105743;1254;96591;-80
2024/02/06 09:19:59;;;;;;;7.50;3.90;;;;;;;8.44;63.89;98286.55;107757;1254;109822;-78
2024/02/06 09:22:28;;;;;;;9.20;4.00;;;;;;;8.45;63.63;98285.94;106383;1255;96994;-79
2024/02/06 09:24:56;;;;;;;12.10;4.90;;;;;;;8.48;63.71;98288.02;107635;1254;107440;-78
2024/02/06 09:27:24;;;;;;;8.40;4.00;;;;;;;8.48;63.48;98292.09;105372;1265;96629;-80
2024/02/06 09:29:52;;;;;;;11.80;5.30;;;;;;;8.49;63.54;98285.83;105435;1258;96592;-79
2024/02/06 09:32:20;;;;;;;13.10;4.70;;;;;;;8.53;63.48;98287.50;105146;1257;109720;-77
2024/02/06 09:34:47;;;;;;;10.20;5.20;;;;;;;8.56;63.31;98287.12;106117;1257;96498;-77
2024/02/06 09:37:15;;;;;;;8.60;4.10;;;;;;;8.58;63.34;98285.16;106012;1254;107512;-79
2024/02/06 09:39:43;;;;;;;8.90;4.40;;;;;;;8.63;63.31;98286.03;105225;1257;97036;-78
2024/02/06 09:42:11;;;;;;;7.60;3.90;;;;;;;8.68;63.24;98286.04;106018;1256;97111;-79
2024/02/06 09:44:39;;;;;;;8.30;3.50;;;;;;;8.71;63.14;98287.52;105338;1254;109541;-80
2024/02/06 09:47:07;;;;;;;8.00;3.80;;;;;;;8.73;63.26;98287.96;105728;1256;96565;-79
2024/02/06 09:49:35;;;;;;;11.30;4.50;;;;;;;8.73;63.04;98293.58;105708;1256;109198;-79
2024/02/06 09:52:05;;;;;;;9.40;5.40;;;;;;;8.71;63.01;98299.19;107836;1256;96581;-78
2024/02/06 09:54:38;;;;;;;12.00;4.50;;;;;;;8.70;62.87;98298.46;105947;1255;96498;-78
2024/02/06 09:57:07;;;;;;;11.80;4.90;;;;;;;8.67;62.91;98295.30;106146;1255;110002;-79
2024/02/06 09:59:36;;;;;;;6.90;3.50;;;;;;;8.68;62.82;98297.38;105716;1255;96614;-80
2024/02/06 10:02:07;;;;;;;6.50;3.20;;;;;;;8.68;62.64;98301.73;106772;1256;106522;-81
2024/02/06 10:04:35;;;;;;;9.80;3.70;;;;;;;8.67;62.64;98294.59;107919;1253;96595;-77
2024/02/06 10:07:03;;;;;;;7.10;3.40;;;;;;;8.67;62.58;98299.34;105571;1257;96705;-81
2024/02/06 10:09:33;;;;;;;13.80;3.80;;;;;;;8.66;62.54;98300.34;105539;1264;109174;-80
2024/02/06 10:12:02;;;;;;;11.10;3.30;;;;;;;8.63;62.61;98294.64;106509;1254;96584;-80
2024/02/06 10:14:30;;;;;;;5.90;2.90;;;;;;;8.63;62.46;98294.71;107273;1253;106685;-79
2024/02/06 10:16:58;;;;;;;7.70;3.30;;;;;;;8.61;62.43;98293.98;105870;1257;96718;-78
2024/02/06 10:19:33;;;;;;;8.00;3.40;;;;;;;8.58;62.26;98292.56;106419;1254;96568;-78
2024/02/06 10:22:01;;;;;;;9.40;3.50;;;;;;;8.57;62.36;98290.20;105900;1252;108544;-78
2024/02/06 10:24:31;;;;;;;9.00;3.30;;;;;;;8.57;62.06;98290.73;105877;1256;96641;-79
2024/02/06 10:27:02;;;;;;;6.00;3.50;;;;;;;8.58;62.20;98287.86;105726;1257;107113;-79
2024/02/06 10:29:34;;;;;;;13.00;4.30;;;;;;;8.59;62.12;98279.79;106342;1254;96594;-78
2024/02/06 10:32:12;;;;;;;8.30;3.90;;;;;;;8.64;62.22;98276.98;107854;1254;97509;-78
2024/02/06 10:34:40;;;;;;;11.40;4.50;;;;;;;8.71;62.09;98271.66;106230;1254;109477;-79
2024/02/06 10:37:09;;;;;;;7.40;3.60;;;;;;;8.76;62.06;98275.30;105863;1257;96533;-80
2024/02/06 10:39:37;;;;;;;8.90;5.30;;;;;;;8.79;62.07;98271.87;105568;1253;106609;-79
2024/02/06 10:42:05;;;;;;;10.80;3.90;;;;;;;8.83;62.16;98271.61;105513;1254;97953;-78
2024/02/06 10:44:55;;;;;;;6.30;3.00;;;;;;;8.84;61.80;98276.80;105500;1254;96606;-80
2024/02/06 10:47:27;;;;;;;6.80;3.20;;;;;;;8.85;61.81;98276.23;108446;1253;109865;-78
2024/02/06 10:50:09;;;;;;;9.90;3.00;;;;;;;8.88;61.88;98280.08;105655;1256;96571;-80
2024/02/06 11:14:24;;;;;;;8.20;3.60;;;;;;;9.40;60.97;98275.46;104257;1282;649994;-78
2024/02/06 11:16:57;;;;;;;8.20;3.50;;;;;;;9.32;61.21;98268.48;106045;1263;209652;-79
2024/02/06 11:19:53;;;;;;;10.10;3.70;;;;;;;9.29;61.23;98265.85;105775;1260;94331;-79
2024/02/06 11:22:29;;;;;;;8.70;3.10;;;;;;;9.23;61.06;98270.71;105809;1256;108949;-80
2024/02/06 11:24:58;;;;;;;10.20;3.70;;;;;;;9.16;60.77;98268.63;106408;1258;95779;-80
2024/02/06 11:27:30;;;;;;;7.50;3.00;;;;;;;9.11;60.64;98265.16;106864;1256;107664;-78
2024/02/06 11:29:57;;;;;;;6.70;3.90;;;;;;;9.08;60.68;98266.64;106485;1256;94322;-75
2024/02/06 11:32:24;;;;;;;7.70;3.50;;;;;;;9.05;60.61;98261.02;106395;1252;94728;-75
2024/02/06 11:34:55;;;;;;;9.90;3.40;;;;;;;9.03;60.50;98263.65;108286;1256;92776;-75
2024/02/06 11:37:23;;;;;;;4.90;3.10;;;;;;;9.00;60.48;98257.89;108784;1251;95495;-77
2024/02/06 11:39:50;;;;;;;8.70;3.60;;;;;;;9.01;60.70;98255.72;108245;1253;108170;-75
2024/02/06 11:42:23;;;;;;;6.10;3.00;;;;;;;9.01;60.66;98253.73;107176;1252;95214;-75
2024/02/06 11:44:50;;;;;;;5.10;3.20;;;;;;;9.00;60.49;98247.45;106290;1259;95413;-75
2024/02/06 11:47:20;;;;;;;5.60;2.80;;;;;;;9.01;60.33;98253.42;107852;1252;95228;-75
2024/02/06 11:49:47;;;;;;;5.90;2.70;;;;;;;9.01;60.14;98246.00;106815;1256;95435;-75
2024/02/06 11:52:20;;;;;;;8.20;3.30;;;;;;;9.03;60.35;98253.21;106815;1253;95923;-75
2024/02/06 11:54:49;;;;;;;10.00;4.10;;;;;;;9.05;60.47;98247.94;106467;1256;95233;-75
2024/02/06 11:57:15;;;;;;;8.30;3.80;;;;;;;9.07;60.63;98247.98;105768;1255;95263;-75
2024/02/06 11:59:43;;;;;;;9.00;4.10;;;;;;;9.08;60.56;98253.73;107197;1254;95227;-75
2024/02/06 12:02:17;;;;;;;6.50;2.90;;;;;;;9.04;60.25;98249.81;106467;1256;95345;-75